Time;durP1;ratioP1;P1;durP2;ratioP2;P2;SDS_P1;SDS_P2;PMS_P1;PMS_P2;Temp;Humidity;BMP_temperature;BMP_pressure;BME280_temperature;BME280_humidity;BME280_pressure;Samples;Min_cycle;Max_cycle;Signal;HPM_P1;HPM_P2
2023/08/26 00:00:51;;;;;;;6.65;4.22;;;;;;;23.52;78.16;100310.38;5003262;28;20037;-71
2023/08/26 00:03:16;;;;;;;9.00;4.60;;;;;;;23.45;78.24;100299.88;5019977;28;20030;-70
2023/08/26 00:05:43;;;;;;;5.60;3.95;;;;;;;23.39;78.64;100302.66;5021362;28;20037;-71
2023/08/26 00:08:08;;;;;;;4.75;4.00;;;;;;;23.37;78.89;100300.22;5016258;28;20128;-71
2023/08/26 00:10:34;;;;;;;7.68;4.47;;;;;;;23.31;78.80;100303.81;5017842;28;20129;-69
2023/08/26 00:12:59;;;;;;;7.55;4.57;;;;;;;23.30;79.18;100290.75;5022629;28;20045;-70
2023/08/26 00:15:25;;;;;;;9.77;4.43;;;;;;;23.29;79.32;100299.75;5021774;28;20030;-70
2023/08/26 00:17:50;;;;;;;5.47;4.45;;;;;;;23.28;79.98;100298.94;5019002;28;20029;-69
2023/08/26 00:20:16;;;;;;;5.30;4.22;;;;;;;23.26;80.17;100289.59;5004546;28;20049;-72
2023/08/26 00:22:41;;;;;;;9.50;5.78;;;;;;;23.28;80.03;100292.81;5008643;28;20045;-69
2023/08/26 00:25:07;;;;;;;8.95;4.88;;;;;;;23.23;80.21;100287.38;5006628;28;20492;-70
2023/08/26 00:27:33;;;;;;;6.05;4.78;;;;;;;23.25;79.56;100290.63;5005457;28;20041;-70
2023/08/26 00:29:58;;;;;;;6.05;3.95;;;;;;;23.28;78.44;100288.31;5003618;28;20132;-71
2023/08/26 00:32:24;;;;;;;6.90;3.80;;;;;;;23.33;77.43;100287.63;5005519;28;20041;-69
2023/08/26 00:34:49;;;;;;;3.97;3.47;;;;;;;23.43;76.31;100291.31;5004400;28;20034;-70
2023/08/26 00:37:15;;;;;;;6.05;4.15;;;;;;;23.54;75.44;100294.22;5003656;28;20054;-71
2023/08/26 00:39:40;;;;;;;8.18;4.03;;;;;;;23.59;75.18;100295.16;5006089;28;20037;-71
2023/08/26 00:42:06;;;;;;;8.82;4.18;;;;;;;23.59;75.55;100289.03;5011094;28;20600;-70
2023/08/26 00:44:31;;;;;;;6.35;4.10;;;;;;;23.46;76.47;100290.84;5010756;28;20030;-69
2023/08/26 00:46:59;;;;;;;6.50;4.22;;;;;;;23.37;77.28;100296.75;5004046;28;20478;-70
2023/08/26 00:49:25;;;;;;;5.30;4.20;;;;;;;23.30;77.75;100291.56;5003669;28;20124;-70
2023/08/26 00:51:50;;;;;;;4.30;3.90;;;;;;;23.30;77.70;100294.22;5002899;28;20044;-69
2023/08/26 00:54:17;;;;;;;4.32;3.92;;;;;;;23.31;77.07;100287.84;5003598;28;20037;-70
2023/08/26 00:56:42;;;;;;;4.28;3.88;;;;;;;23.35;76.52;100289.00;5010274;28;20034;-69
2023/08/26 00:59:08;;;;;;;8.50;4.20;;;;;;;23.43;75.26;100285.19;5005676;28;20069;-71
2023/08/26 01:01:34;;;;;;;9.48;4.22;;;;;;;23.43;75.36;100285.19;5003744;28;20033;-69
2023/08/26 01:04:00;;;;;;;5.50;4.13;;;;;;;23.41;75.84;100282.75;5007642;28;20046;-70
2023/08/26 01:06:26;;;;;;;6.35;4.50;;;;;;;23.38;75.92;100277.91;5005857;28;20034;-69
2023/08/26 01:08:52;;;;;;;5.38;4.05;;;;;;;23.39;75.58;100279.53;5002292;28;20053;-69
2023/08/26 01:11:41;;;;;;;10.05;4.65;;;;;;;23.37;75.09;100270.97;5011136;28;20030;-68
2023/08/26 01:14:29;;;;;;;5.45;4.65;;;;;;;23.38;74.80;100264.63;5005628;28;20172;-69
2023/08/26 01:16:55;;;;;;;5.15;4.32;;;;;;;23.38;74.85;100253.19;5002232;28;20040;-70
2023/08/26 01:19:38;;;;;;;5.20;4.68;;;;;;;23.38;73.34;100248.66;5002038;28;21626;-69
2023/08/26 01:22:08;;;;;;;4.47;3.88;;;;;;;23.39;73.75;100247.63;5002251;28;20390;-68
2023/08/26 01:24:36;;;;;;;7.82;4.63;;;;;;;23.41;73.05;100250.88;5008089;28;20033;-70
2023/08/26 01:27:02;;;;;;;5.57;4.38;;;;;;;23.41;73.05;100248.19;5016361;28;20041;-70
2023/08/26 01:29:27;;;;;;;7.20;4.70;;;;;;;23.37;72.96;100244.38;5003864;28;20088;-69
2023/08/26 01:32:11;;;;;;;6.45;4.10;;;;;;;23.33;73.35;100234.47;5002941;28;20128;-70
2023/08/26 01:34:38;;;;;;;7.35;4.95;;;;;;;23.29;74.13;100231.47;5001932;28;20026;-69
2023/08/26 01:37:07;;;;;;;5.32;4.57;;;;;;;23.25;75.82;100226.84;5001754;28;20049;-68
2023/08/26 01:39:33;;;;;;;8.23;4.72;;;;;;;23.13;77.53;100221.56;5003670;28;20556;-70
2023/08/26 01:42:01;;;;;;;10.88;5.35;;;;;;;23.04;78.76;100217.63;5000825;28;20048;-70
2023/08/26 01:44:27;;;;;;;5.28;4.70;;;;;;;23.00;78.99;100216.47;5009656;28;20033;-69
2023/08/26 01:46:53;;;;;;;6.75;5.18;;;;;;;23.00;78.94;100211.16;5001260;28;20151;-70
2023/08/26 01:49:19;;;;;;;6.50;4.93;;;;;;;23.00;78.58;100205.84;5004527;28;20036;-71
2023/08/26 01:51:45;;;;;;;7.25;4.50;;;;;;;23.06;76.77;100210.25;5003028;28;20430;-71
2023/08/26 01:54:11;;;;;;;7.35;5.18;;;;;;;23.15;75.77;100198.22;4997226;28;20087;-70
2023/08/26 01:56:36;;;;;;;6.47;5.30;;;;;;;23.20;74.83;100200.16;5000273;28;20472;-70
2023/08/26 01:59:02;;;;;;;5.63;5.07;;;;;;;23.21;74.38;100188.47;5003308;28;20044;-70
2023/08/26 02:01:28;;;;;;;5.43;4.93;;;;;;;23.19;74.26;100183.41;5002076;28;20038;-71
2023/08/26 02:03:54;;;;;;;5.13;4.63;;;;;;;23.16;74.57;100179.34;5008936;28;20359;-71
2023/08/26 02:06:19;;;;;;;6.63;5.05;;;;;;;23.10;75.79;100174.19;5001744;28;20037;-70
2023/08/26 02:08:45;;;;;;;9.88;6.00;;;;;;;22.99;77.21;100177.66;5001318;28;21649;-70
2023/08/26 02:11:11;;;;;;;6.72;6.03;;;;;;;22.95;77.22;100177.31;5008174;28;20036;-71
2023/08/26 02:13:36;;;;;;;8.52;5.78;;;;;;;22.96;77.27;100181.59;5008766;28;20033;-71
2023/08/26 02:16:02;;;;;;;6.35;5.30;;;;;;;22.95;77.07;100185.28;5001261;28;20036;-70
2023/08/26 02:18:27;;;;;;;9.05;5.47;;;;;;;22.91;76.77;100185.97;5004009;28;20172;-70
2023/08/26 02:20:53;;;;;;;5.57;4.88;;;;;;;22.87;76.95;100179.50;4999774;28;20030;-71
2023/08/26 02:23:18;;;;;;;7.50;5.18;;;;;;;22.88;76.14;100181.13;5000824;28;20029;-69
2023/08/26 02:25:44;;;;;;;8.35;5.60;;;;;;;22.95;76.35;100177.31;5006442;28;20036;-71
2023/08/26 02:28:09;;;;;;;6.95;4.97;;;;;;;22.96;76.92;100178.13;4998779;28;20432;-71
2023/08/26 02:30:35;;;;;;;6.05;5.45;;;;;;;22.93;77.97;100178.59;5007798;28;20714;-69
2023/08/26 02:33:02;;;;;;;7.10;5.95;;;;;;;22.87;78.49;100182.16;5002843;28;20033;-70
2023/08/26 02:35:29;;;;;;;12.45;5.95;;;;;;;22.90;77.97;100179.06;5000846;28;20102;-68
2023/08/26 02:37:54;;;;;;;9.88;5.60;;;;;;;22.96;77.09;100178.13;5000363;28;20034;-70
2023/08/26 02:40:20;;;;;;;6.55;5.32;;;;;;;22.90;76.95;100171.09;5001475;28;20026;-71
2023/08/26 02:42:45;;;;;;;6.28;5.40;;;;;;;22.94;76.55;100174.91;5000383;28;20405;-70
2023/08/26 02:45:11;;;;;;;9.13;5.25;;;;;;;22.90;77.17;100171.09;5004488;28;20392;-69
2023/08/26 02:47:36;;;;;;;8.32;5.50;;;;;;;22.80;78.52;100158.38;4999567;28;20049;-70
2023/08/26 02:50:02;;;;;;;6.22;5.13;;;;;;;22.68;79.16;100171.66;5000238;28;20041;-71
2023/08/26 02:52:27;;;;;;;6.10;5.15;;;;;;;22.61;78.80;100164.84;5000455;28;20239;-70
2023/08/26 02:54:53;;;;;;;6.03;4.97;;;;;;;22.63;78.60;100158.25;5000309;28;20033;-69
2023/08/26 02:57:19;;;;;;;6.28;5.32;;;;;;;22.64;78.25;100156.41;5002480;28;20076;-69
2023/08/26 02:59:45;;;;;;;7.75;5.32;;;;;;;22.65;77.98;100150.06;5002047;28;20043;-70
2023/08/26 03:02:11;;;;;;;9.98;5.50;;;;;;;22.71;77.30;100147.25;5009560;28;20084;-71
2023/08/26 03:04:36;;;;;;;11.50;5.32;;;;;;;22.73;77.69;100141.72;5002838;28;20157;-69
2023/08/26 03:07:02;;;;;;;6.32;5.47;;;;;;;22.74;78.25;100151.31;5000920;28;20041;-69
2023/08/26 03:09:30;;;;;;;6.15;5.13;;;;;;;22.64;79.17;100154.56;5002494;28;20381;-71
2023/08/26 03:11:56;;;;;;;9.30;5.38;;;;;;;22.57;80.21;100153.88;5008485;28;20409;-70
2023/08/26 03:14:21;;;;;;;6.07;4.97;;;;;;;22.49;81.07;100152.34;5004488;28;20026;-70
2023/08/26 03:16:47;;;;;;;8.35;5.82;;;;;;;22.42;81.82;100162.28;5006363;28;20033;-69
2023/08/26 03:19:12;;;;;;;7.25;5.10;;;;;;;22.44;81.63;100170.00;5001429;28;20045;-71
2023/08/26 03:21:38;;;;;;;5.70;5.10;;;;;;;22.44;82.03;100170.81;5000297;28;20026;-69
2023/08/26 03:24:03;;;;;;;6.85;4.72;;;;;;;22.38;82.71;100176.22;5000595;28;20031;-69
2023/08/26 03:26:29;;;;;;;5.13;4.43;;;;;;;22.26;82.91;100175.38;5007255;28;20048;-68
2023/08/26 03:28:54;;;;;;;9.75;6.28;;;;;;;22.27;83.27;100177.00;5007267;28;20778;-69
2023/08/26 03:31:20;;;;;;;6.47;5.10;;;;;;;22.23;83.18;100189.91;5003170;28;20639;-68
2023/08/26 03:33:45;;;;;;;10.15;5.07;;;;;;;22.21;83.66;100188.56;5000582;28;20037;-69
2023/08/26 03:36:11;;;;;;;9.02;5.10;;;;;;;22.27;83.12;100190.28;5000049;28;21016;-69
2023/08/26 03:38:36;;;;;;;6.35;5.75;;;;;;;22.34;82.11;100189.16;5000695;28;20042;-68
2023/08/26 03:41:05;;;;;;;6.97;5.72;;;;;;;22.51;80.28;100191.94;4999811;28;20099;-67
2023/08/26 03:43:32;;;;;;;7.15;5.72;;;;;;;22.67;79.75;100191.28;5002718;28;20951;-68
2023/08/26 03:45:57;;;;;;;6.05;4.80;;;;;;;22.58;80.07;100186.53;5004406;28;20035;-68
2023/08/26 03:48:23;;;;;;;6.43;4.65;;;;;;;22.49;80.77;100183.41;5000379;28;20034;-68
2023/08/26 03:50:53;;;;;;;5.38;4.85;;;;;;;22.45;81.08;100182.25;5000936;28;20042;-68
2023/08/26 03:53:19;;;;;;;6.07;5.47;;;;;;;22.42;80.65;100177.38;4997151;28;20029;-68
2023/08/26 03:55:47;;;;;;;8.40;5.75;;;;;;;22.47;79.21;100169.56;4998023;28;20371;-67
2023/08/26 03:58:13;;;;;;;6.75;5.90;;;;;;;22.52;78.17;100177.63;5004439;28;20068;-68
2023/08/26 04:00:39;;;;;;;6.13;5.32;;;;;;;22.61;77.00;100178.13;5000216;28;20068;-70
2023/08/26 04:03:07;;;;;;;7.10;5.22;;;;;;;22.70;75.18;100185.47;5001902;28;20037;-68
2023/08/26 04:05:33;;;;;;;6.78;6.13;;;;;;;22.75;75.05;100177.63;4999524;28;20072;-69
2023/08/26 04:08:02;;;;;;;5.00;4.50;;;;;;;22.73;75.41;100182.38;4998258;28;20117;-68
2023/08/26 04:10:28;;;;;;;6.03;4.80;;;;;;;22.68;75.97;100197.41;5011025;28;20040;-68
2023/08/26 04:12:53;;;;;;;6.93;4.75;;;;;;;22.61;77.16;100186.88;5000941;28;20037;-68
2023/08/26 04:15:19;;;;;;;8.00;5.00;;;;;;;22.55;77.91;100187.81;5001176;28;20030;-67
2023/08/26 04:17:44;;;;;;;5.32;4.38;;;;;;;22.49;78.26;100178.91;5003421;28;20785;-67
2023/08/26 04:20:11;;;;;;;7.95;4.50;;;;;;;22.45;78.80;100192.84;5000046;28;20065;-68
2023/08/26 04:22:37;;;;;;;8.30;4.88;;;;;;;22.39;79.58;100191.13;5001137;28;20026;-68
2023/08/26 04:25:06;;;;;;;7.90;4.82;;;;;;;22.34;79.68;100197.09;4999960;28;20033;-68
2023/08/26 04:27:34;;;;;;;5.85;4.90;;;;;;;22.31;79.95;100202.88;5006765;28;20473;-68
2023/08/26 04:30:00;;;;;;;11.02;4.45;;;;;;;22.26;80.23;100193.97;5001611;28;20649;-69
2023/08/26 04:32:26;;;;;;;7.72;4.32;;;;;;;22.29;78.91;100199.63;5006421;28;20184;-68
2023/08/26 04:34:51;;;;;;;5.15;4.63;;;;;;;22.32;78.55;100196.53;4998669;28;20038;-71
2023/08/26 04:37:20;;;;;;;6.47;5.80;;;;;;;22.35;78.58;100192.59;5003370;28;20057;-70
2023/08/26 04:39:46;;;;;;;4.68;4.03;;;;;;;22.32;78.92;100207.13;4999258;28;20116;-68
2023/08/26 04:42:12;;;;;;;5.15;4.55;;;;;;;22.29;79.64;100204.94;4995390;28;20131;-67
2023/08/26 04:44:37;;;;;;;9.32;5.47;;;;;;;22.25;80.15;100213.56;5005192;28;20072;-67
2023/08/26 04:47:03;;;;;;;6.93;4.78;;;;;;;22.21;80.32;100217.75;5030633;28;20083;-67
2023/08/26 04:49:29;;;;;;;6.03;4.40;;;;;;;22.15;81.14;100212.31;5015827;28;20037;-67
2023/08/26 04:51:54;;;;;;;4.57;4.18;;;;;;;22.11;81.27;100211.13;5002261;28;21300;-67
2023/08/26 04:54:21;;;;;;;5.35;4.85;;;;;;;22.10;81.32;100212.19;5002723;28;20064;-67
2023/08/26 04:56:46;;;;;;;8.10;5.07;;;;;;;22.13;80.75;100210.91;5003872;28;20033;-67
2023/08/26 04:59:12;;;;;;;6.80;5.30;;;;;;;22.21;80.06;100210.59;5004982;28;20041;-67
2023/08/26 05:01:38;;;;;;;9.55;5.13;;;;;;;22.33;78.98;100213.25;5007840;28;20057;-67
2023/08/26 05:04:04;;;;;;;9.98;5.80;;;;;;;22.42;77.87;100209.25;5010002;28;20041;-67
2023/08/26 05:06:29;;;;;;;10.32;6.45;;;;;;;22.49;76.75;100210.75;5003394;28;20030;-67
2023/08/26 05:08:55;;;;;;;7.28;5.60;;;;;;;22.52;76.26;100225.44;5002889;28;20048;-67
2023/08/26 05:11:20;;;;;;;7.05;5.85;;;;;;;22.52;76.52;100225.44;5010262;28;20048;-67
2023/08/26 05:13:46;;;;;;;9.88;6.55;;;;;;;22.52;76.81;100228.88;5002811;28;20041;-64
2023/08/26 05:16:11;;;;;;;11.95;6.80;;;;;;;22.54;76.91;100241.94;5001980;28;20026;-63
2023/08/26 05:18:36;;;;;;;7.13;5.50;;;;;;;22.54;77.40;100244.59;5009388;28;20037;-66
2023/08/26 05:21:02;;;;;;;7.40;4.85;;;;;;;22.51;78.31;100253.00;5002719;28;20037;-65
2023/08/26 05:23:28;;;;;;;8.27;4.38;;;;;;;22.50;78.71;100254.03;5001260;28;20038;-66
2023/08/26 05:25:53;;;;;;;6.32;4.32;;;;;;;22.47;78.85;100254.50;5005245;28;20836;-64
2023/08/26 05:28:19;;;;;;;7.68;4.63;;;;;;;22.41;80.00;100250.09;5003768;28;20042;-67
2023/08/26 05:30:44;;;;;;;7.43;5.05;;;;;;;22.39;80.45;100250.31;5005688;28;20208;-65
2023/08/26 05:33:10;;;;;;;5.45;4.82;;;;;;;22.37;80.32;100249.75;5002928;28;20033;-65
2023/08/26 05:35:35;;;;;;;6.72;4.97;;;;;;;22.42;79.65;100246.41;5005939;28;20054;-65
2023/08/26 05:38:02;;;;;;;6.63;4.80;;;;;;;22.50;78.52;100246.88;5000464;28;20065;-65
2023/08/26 05:40:29;;;;;;;6.53;4.65;;;;;;;22.61;77.99;100253.25;5004799;28;20034;-65
2023/08/26 05:42:57;;;;;;;5.68;5.07;;;;;;;22.67;77.68;100260.31;5002019;28;20033;-65
2023/08/26 05:45:24;;;;;;;9.63;5.10;;;;;;;22.64;78.67;100265.28;5002338;28;20061;-65
2023/08/26 05:47:53;;;;;;;5.47;4.28;;;;;;;22.56;79.61;100262.94;5001805;28;20037;-65
2023/08/26 05:50:18;;;;;;;6.43;4.60;;;;;;;22.51;80.62;100276.91;5005381;28;20037;-64
2023/08/26 05:52:44;;;;;;;5.15;4.60;;;;;;;22.43;80.95;100275.38;5001849;28;20947;-65
2023/08/26 05:55:10;;;;;;;5.85;4.53;;;;;;;22.46;80.94;100268.81;5001899;28;20999;-65
2023/08/26 05:57:36;;;;;;;6.55;5.10;;;;;;;22.51;80.72;100272.41;5006821;28;20030;-64
2023/08/26 06:00:02;;;;;;;4.97;4.57;;;;;;;22.62;79.95;100262.03;5003235;28;20033;-66
2023/08/26 06:02:29;;;;;;;10.95;4.82;;;;;;;22.71;79.65;100252.69;5004594;28;20103;-64
2023/08/26 06:04:54;;;;;;;6.63;4.78;;;;;;;22.75;78.93;100249.34;5003725;28;20099;-66
2023/08/26 06:07:20;;;;;;;6.00;4.72;;;;;;;22.82;79.21;100247.41;4998678;28;20042;-66
2023/08/26 06:09:45;;;;;;;6.35;5.22;;;;;;;22.89;77.43;100251.81;5009916;28;20026;-65
2023/08/26 06:12:10;;;;;;;8.38;5.20;;;;;;;22.99;76.67;100244.09;5015271;28;20033;-66
2023/08/26 06:14:36;;;;;;;8.75;5.30;;;;;;;23.09;76.38;100244.31;4996373;28;20155;-65
2023/08/26 06:17:01;;;;;;;5.68;5.10;;;;;;;23.21;75.69;100239.78;5014428;28;20030;-65
2023/08/26 06:19:27;;;;;;;8.13;5.43;;;;;;;23.31;75.60;100250.63;5001585;28;20040;-66
2023/08/26 06:21:52;;;;;;;9.73;5.03;;;;;;;23.37;75.71;100244.38;5005163;28;20041;-66
2023/08/26 06:24:18;;;;;;;5.50;4.95;;;;;;;23.35;76.18;100235.03;4998032;28;20033;-65
2023/08/26 06:26:44;;;;;;;6.38;5.18;;;;;;;23.41;76.41;100234.09;5002634;28;20029;-65
2023/08/26 06:29:13;;;;;;;5.35;4.60;;;;;;;23.42;76.61;100241.84;4999246;28;20048;-65
2023/08/26 06:31:38;;;;;;;8.23;5.03;;;;;;;23.43;76.50;100240.81;4999680;28;20171;-67
2023/08/26 06:34:04;;;;;;;7.20;4.50;;;;;;;23.54;76.87;100227.75;4997643;28;20880;-65
2023/08/26 06:36:29;;;;;;;6.22;4.75;;;;;;;23.61;76.58;100233.75;5006136;28;20049;-66
2023/08/26 06:38:54;;;;;;;6.90;3.88;;;;;;;23.68;76.39;100229.88;5002687;28;20045;-66
2023/08/26 06:41:20;;;;;;;4.90;4.28;;;;;;;23.79;76.01;100237.03;4998556;28;20100;-66
2023/08/26 06:43:45;;;;;;;6.03;4.93;;;;;;;23.85;75.53;100234.47;5002034;28;20041;-66
2023/08/26 06:46:11;;;;;;;6.82;4.63;;;;;;;23.91;75.25;100234.34;5002212;28;20034;-66
2023/08/26 06:48:36;;;;;;;5.70;4.78;;;;;;;23.93;74.40;100231.44;4997855;28;20046;-66
2023/08/26 06:51:02;;;;;;;9.45;4.85;;;;;;;24.07;74.41;100240.75;4999602;28;20045;-66
2023/08/26 06:53:27;;;;;;;5.60;4.40;;;;;;;24.21;73.96;100243.91;5001035;28;20053;-67
2023/08/26 06:55:53;;;;;;;6.53;4.90;;;;;;;24.38;72.78;100244.78;4998742;28;20037;-66
2023/08/26 06:58:20;;;;;;;6.45;4.38;;;;;;;24.39;72.29;100243.72;5002260;28;20034;-66
2023/08/26 07:00:46;;;;;;;7.20;4.47;;;;;;;24.45;72.46;100234.78;5001744;28;20124;-66
2023/08/26 07:03:12;;;;;;;4.20;3.90;;;;;;;24.50;72.29;100236.72;4997937;28;20493;-67
2023/08/26 07:05:46;;;;;;;7.20;4.40;;;;;;;24.70;71.57;100243.19;5000280;28;20048;-67
2023/08/26 07:08:15;;;;;;;5.32;4.82;;;;;;;24.91;71.52;100243.50;5005988;28;20049;-66
2023/08/26 07:10:44;;;;;;;4.95;4.22;;;;;;;25.10;71.17;100240.31;5014014;28;20038;-66
2023/08/26 07:13:10;;;;;;;7.40;4.10;;;;;;;25.21;70.63;100249.28;4997763;28;20034;-67
2023/08/26 07:15:35;;;;;;;5.72;4.63;;;;;;;25.28;70.14;100247.25;4996742;28;20609;-67
2023/08/26 07:18:01;;;;;;;4.85;4.40;;;;;;;25.25;69.77;100249.59;5002803;28;20508;-66
2023/08/26 07:20:27;;;;;;;4.97;4.55;;;;;;;25.29;69.71;100246.19;4999577;28;20033;-66
2023/08/26 07:22:52;;;;;;;4.45;3.70;;;;;;;25.41;68.85;100244.22;5001260;28;20065;-66
2023/08/26 07:25:18;;;;;;;6.43;4.45;;;;;;;25.48;68.79;100241.38;5004427;28;20076;-67
2023/08/26 07:27:45;;;;;;;6.57;4.03;;;;;;;25.64;68.47;100243.19;4997458;28;20037;-67
2023/08/26 07:30:11;;;;;;;5.53;3.85;;;;;;;25.76;67.51;100245.72;4999524;28;20033;-66
2023/08/26 07:32:37;;;;;;;6.63;4.50;;;;;;;25.84;67.21;100239.97;5000132;28;20037;-66
2023/08/26 07:35:02;;;;;;;4.45;4.05;;;;;;;25.96;67.01;100240.63;5014419;28;20030;-66
2023/08/26 07:37:29;;;;;;;6.15;4.18;;;;;;;26.06;66.99;100235.38;5022109;28;20030;-66
2023/08/26 07:39:54;;;;;;;4.82;4.28;;;;;;;26.20;66.76;100230.44;5021740;28;20057;-67
2023/08/26 07:42:19;;;;;;;4.43;4.03;;;;;;;26.35;66.21;100227.94;5029092;28;20076;-68
2023/08/26 07:44:45;;;;;;;8.40;3.92;;;;;;;26.42;64.71;100236.56;5035513;28;20021;-67
2023/08/26 07:47:10;;;;;;;7.28;4.22;;;;;;;26.56;65.05;100238.78;5025445;28;20089;-66
2023/08/26 07:49:36;;;;;;;8.07;4.45;;;;;;;26.67;64.38;100235.94;5025037;28;20037;-66
2023/08/26 07:52:01;;;;;;;7.40;3.95;;;;;;;26.83;63.85;100222.69;5017290;28;20040;-66
2023/08/26 07:54:27;;;;;;;5.25;4.75;;;;;;;26.92;63.74;100226.50;5017225;28;20179;-66
2023/08/26 07:56:53;;;;;;;6.00;3.85;;;;;;;27.08;63.78;100220.19;5014976;28;20113;-67
2023/08/26 07:59:19;;;;;;;4.72;3.75;;;;;;;27.27;63.20;100224.03;5011747;28;20045;-66
2023/08/26 08:01:44;;;;;;;3.92;3.53;;;;;;;27.45;63.09;100214.72;5009540;28;20057;-67
2023/08/26 08:04:09;;;;;;;5.53;3.97;;;;;;;27.59;62.38;100215.09;5017587;28;20038;-67
2023/08/26 08:06:35;;;;;;;6.93;4.10;;;;;;;27.69;62.01;100209.78;5014926;28;20046;-67
2023/08/26 08:09:00;;;;;;;4.63;4.03;;;;;;;27.70;61.51;100208.72;5010541;28;20049;-66
2023/08/26 08:11:26;;;;;;;6.35;4.00;;;;;;;27.77;60.58;100209.28;5015779;28;20060;-66
2023/08/26 08:13:51;;;;;;;7.15;3.67;;;;;;;27.89;60.85;100207.13;5015444;28;20543;-66
2023/08/26 08:16:17;;;;;;;4.20;3.85;;;;;;;28.04;60.61;100201.81;5017200;28;20040;-67
2023/08/26 08:18:42;;;;;;;8.88;4.00;;;;;;;28.11;60.29;100200.75;5009567;28;20128;-66
2023/08/26 08:21:09;;;;;;;4.95;3.97;;;;;;;28.23;60.36;100209.38;5021614;28;20152;-66
2023/08/26 08:23:35;;;;;;;7.63;4.32;;;;;;;28.41;59.91;100198.91;5030443;28;20038;-66
2023/08/26 08:26:01;;;;;;;10.43;4.30;;;;;;;28.38;59.92;100204.78;5033940;28;20045;-66
2023/08/26 08:28:27;;;;;;;6.35;4.10;;;;;;;28.47;60.19;100209.63;5026813;28;20045;-66
2023/08/26 08:30:52;;;;;;;4.53;4.13;;;;;;;28.61;59.73;100206.13;5025154;28;20116;-66
2023/08/26 08:33:17;;;;;;;8.65;4.40;;;;;;;28.72;59.05;100202.38;5027349;28;20034;-66
2023/08/26 08:35:43;;;;;;;9.57;4.10;;;;;;;28.84;58.04;100195.91;5025179;28;20049;-67
2023/08/26 08:38:09;;;;;;;4.50;3.78;;;;;;;28.86;57.87;100199.13;5024883;28;20069;-66
2023/08/26 08:40:34;;;;;;;8.13;4.78;;;;;;;28.91;57.65;100191.88;5034038;28;20029;-67
2023/08/26 08:43:02;;;;;;;5.38;3.95;;;;;;;28.98;56.69;100188.91;5031572;28;20037;-67
2023/08/26 08:45:28;;;;;;;6.07;4.35;;;;;;;29.08;57.51;100194.25;5014304;28;20045;-66
2023/08/26 08:47:55;;;;;;;6.25;4.20;;;;;;;29.11;57.62;100184.88;5030659;28;20076;-67
2023/08/26 08:50:21;;;;;;;9.63;4.75;;;;;;;29.15;57.33;100191.28;5032784;28;20113;-67
2023/08/26 08:52:49;;;;;;;7.22;4.78;;;;;;;29.26;57.65;100190.19;5023792;28;20054;-66
2023/08/26 08:55:14;;;;;;;7.05;4.20;;;;;;;29.24;55.61;100192.34;5026039;28;20099;-67
2023/08/26 08:57:41;;;;;;;5.57;4.45;;;;;;;29.03;56.50;100191.59;5032603;28;20481;-67
2023/08/26 09:00:08;;;;;;;6.13;4.50;;;;;;;28.83;57.46;100188.97;5033298;28;20029;-67
2023/08/26 09:02:40;;;;;;;5.38;4.88;;;;;;;28.70;57.53;100183.06;5033863;28;20048;-66
2023/08/26 09:05:06;;;;;;;7.82;5.10;;;;;;;28.85;57.70;100182.25;5035473;28;20112;-67
2023/08/26 09:07:32;;;;;;;6.22;4.25;;;;;;;28.90;57.22;100184.13;5033674;28;20033;-67
2023/08/26 09:09:58;;;;;;;5.13;4.50;;;;;;;28.97;58.56;100188.13;5032946;28;20038;-67
2023/08/26 09:12:24;;;;;;;6.82;5.45;;;;;;;29.00;58.12;100184.91;5033773;28;20052;-66
2023/08/26 09:14:49;;;;;;;6.93;5.68;;;;;;;29.04;58.95;100185.16;5032870;28;20068;-67
2023/08/26 09:17:19;;;;;;;6.60;4.82;;;;;;;29.03;59.37;100183.53;5025640;28;20056;-66
2023/08/26 09:19:56;;;;;;;5.95;5.38;;;;;;;29.12;58.10;100173.88;5033349;28;20033;-67
2023/08/26 09:22:30;;;;;;;6.28;5.30;;;;;;;29.18;56.76;100180.81;5028619;28;20041;-67
2023/08/26 09:24:57;;;;;;;6.87;5.87;;;;;;;29.35;57.72;100180.47;5024948;28;20038;-66
2023/08/26 09:27:23;;;;;;;7.30;5.35;;;;;;;29.28;57.19;100171.94;5028910;28;20296;-66
2023/08/26 09:29:49;;;;;;;7.75;5.55;;;;;;;29.41;56.71;100171.34;5024779;28;20543;-66
2023/08/26 09:32:15;;;;;;;5.70;5.20;;;;;;;29.42;56.85;100172.16;5024556;28;20037;-66
2023/08/26 09:34:41;;;;;;;6.65;6.05;;;;;;;29.64;56.13;100164.53;5028376;28;20030;-66
2023/08/26 09:37:09;;;;;;;8.25;5.05;;;;;;;29.75;55.32;100171.44;5026949;28;20050;-66
2023/08/26 09:39:46;;;;;;;7.03;6.07;;;;;;;29.70;55.89;100171.47;5025510;28;20041;-66
2023/08/26 09:42:12;;;;;;;7.80;5.63;;;;;;;29.74;55.78;100163.66;5030278;28;20068;-67
2023/08/26 09:44:40;;;;;;;6.13;5.53;;;;;;;29.73;55.26;100162.06;5026281;28;20045;-66
2023/08/26 09:47:06;;;;;;;5.40;4.90;;;;;;;29.91;55.04;100159.50;5032316;28;20120;-66
2023/08/26 09:49:34;;;;;;;6.68;6.05;;;;;;;29.86;56.19;100161.41;5033044;28;20117;-65
2023/08/26 09:51:59;;;;;;;5.72;5.22;;;;;;;29.70;56.76;100161.53;5027324;28;20482;-67
2023/08/26 09:54:25;;;;;;;6.97;5.90;;;;;;;29.61;57.20;100159.72;5029556;28;20041;-67
2023/08/26 09:56:51;;;;;;;6.75;6.18;;;;;;;29.63;56.74;100162.91;5029062;28;20030;-67
2023/08/26 09:59:17;;;;;;;6.32;5.72;;;;;;;29.52;58.31;100166.72;5028813;28;20129;-67
2023/08/26 10:01:43;;;;;;;6.45;5.65;;;;;;;29.42;58.64;100172.94;5027199;28;20037;-67
2023/08/26 10:04:10;;;;;;;5.97;5.47;;;;;;;29.46;57.77;100167.84;5031987;28;21683;-66
2023/08/26 10:06:40;;;;;;;6.63;5.55;;;;;;;29.55;57.11;100169.66;5032698;28;20090;-66
2023/08/26 10:09:18;;;;;;;6.70;6.10;;;;;;;29.51;55.87;100170.50;5028285;28;20041;-67
2023/08/26 10:11:48;;;;;;;6.05;5.22;;;;;;;29.47;57.46;100167.56;5030337;28;20366;-66
2023/08/26 10:14:14;;;;;;;7.50;6.22;;;;;;;29.57;57.69;100172.06;5032383;28;20478;-66
2023/08/26 10:16:41;;;;;;;6.22;5.63;;;;;;;29.56;57.61;100165.09;5032374;28;20102;-67
2023/08/26 10:19:07;;;;;;;6.20;5.60;;;;;;;29.70;56.41;100163.41;5031807;28;20033;-67
2023/08/26 10:21:34;;;;;;;6.68;6.07;;;;;;;29.81;56.20;100167.59;5032396;28;20025;-66
2023/08/26 10:24:01;;;;;;;8.07;6.30;;;;;;;29.74;56.69;100167.16;5031104;28;20569;-67
2023/08/26 10:26:27;;;;;;;7.90;5.78;;;;;;;29.69;56.80;100162.59;5032315;28;20401;-66
2023/08/26 10:28:55;;;;;;;8.48;6.20;;;;;;;29.71;56.58;100173.06;5031422;28;20033;-66
2023/08/26 10:31:20;;;;;;;6.20;5.63;;;;;;;29.75;55.50;100170.63;5033242;28;20539;-67
2023/08/26 10:34:12;;;;;;;8.50;6.03;;;;;;;29.86;55.07;100172.16;5023622;28;20029;-66
2023/08/26 10:36:39;;;;;;;6.43;5.68;;;;;;;29.92;55.79;100162.97;5031550;28;20057;-66
2023/08/26 10:39:20;;;;;;;6.90;6.22;;;;;;;29.93;54.62;100167.28;5024682;28;20029;-66
2023/08/26 10:42:08;;;;;;;6.38;5.78;;;;;;;29.92;54.18;100162.97;5012078;28;20033;-67
2023/08/26 10:44:38;;;;;;;6.60;6.00;;;;;;;29.89;55.34;100160.84;5018914;28;20112;-66
2023/08/26 10:47:03;;;;;;;9.18;6.05;;;;;;;29.79;55.03;100155.53;5012313;28;20042;-67
2023/08/26 10:49:29;;;;;;;6.35;5.75;;;;;;;29.95;54.52;100165.09;5012015;28;20512;-67
2023/08/26 10:52:17;;;;;;;6.07;5.30;;;;;;;30.03;54.15;100162.66;5014537;28;20065;-67
2023/08/26 10:54:46;;;;;;;6.30;5.70;;;;;;;30.04;54.06;100166.94;5012078;28;20095;-66
2023/08/26 10:57:12;;;;;;;5.72;5.22;;;;;;;29.97;54.51;100161.06;5016358;28;20136;-66
2023/08/26 10:59:41;;;;;;;5.60;5.00;;;;;;;30.05;53.99;100159.69;5013243;28;20167;-67
2023/08/26 11:02:08;;;;;;;5.90;5.40;;;;;;;30.21;54.25;100161.19;5011020;28;20037;-67
2023/08/26 11:04:45;;;;;;;6.93;5.78;;;;;;;30.28;54.43;100158.94;5019345;28;20036;-65
2023/08/26 11:07:17;;;;;;;7.53;5.10;;;;;;;30.35;53.20;100161.31;5018414;28;20041;-66
2023/08/26 11:09:43;;;;;;;5.68;5.20;;;;;;;30.39;53.47;100165.03;5024788;28;20083;-67
2023/08/26 11:12:26;;;;;;;6.35;4.85;;;;;;;30.25;52.56;100158.72;5027575;28;20547;-67
2023/08/26 11:14:53;;;;;;;5.18;4.13;;;;;;;30.31;53.04;100157.59;5028178;28;20029;-67
2023/08/26 11:17:19;;;;;;;5.25;4.72;;;;;;;30.37;52.81;100159.13;5017692;28;20450;-66
2023/08/26 11:19:44;;;;;;;4.97;4.40;;;;;;;30.34;52.21;100157.00;5031066;28;20132;-66
2023/08/26 11:22:11;;;;;;;7.22;5.07;;;;;;;30.42;52.70;100153.72;5021087;28;20128;-67